Terminal Aerodrome Forecast
Issued by NWS

Home | Current Version | Previous Version | Graphics & Text | Print | Product List | Glossary On
Versions: 1 2 3 4 5 6 7 8 9 10 11 12 13 14 15
224
FTUS43 KBIS 271307 AAA
TAFDIK
TAF AMD
KDIK 271307Z 2713/2812 01006KT 1SM -SN BR OVC008
      TEMPO 2713/2716 1/2SM SN FG OVC004
     FM271600 05010KT 2SM -RASN BR OVC005
     FM271900 06012G21KT 5SM -RA BR OVC015
     FM280000 04010G18KT P6SM -RA OVC035
     FM280400 05008KT P6SM -SNRA OVC040
     FM280800 05007KT P6SM OVC045=

USA.gov is the U.S. government's official web portal to all federal, state and local government web resources and services.